<?xml version="1.0" encoding="UTF-8" standalone="no" ?>
<gpx xmlns="http://www.topografix.com/GPX/1/1" xmlns:xsi="http://www.w3.org/2001/XMLSchema-instance" xsi:schemaLocation="http://www.topografix.com/GPX/1/1 http://www.topografix.com/GPX/1/1/gpx.xsd" version="1.1" creator="VisuGPX - https://www.visugpx.com">
  <metadata>
    <name>Le Tholy - la Forge</name>
  </metadata>
  <trk>
    <name><![CDATA[Près du Tholy]]></name>
    <trkseg>
      <trkpt lat="48.07492" lon="6.73262">
        <ele>583.98046875</ele>
      </trkpt>
      <trkpt lat="48.07531" lon="6.7323">
        <ele>592.75</ele>
      </trkpt>
      <trkpt lat="48.07575" lon="6.73245">
        <ele>587.15625</ele>
      </trkpt>
      <trkpt lat="48.07618" lon="6.73221">
        <ele>589.265625</ele>
      </trkpt>
      <trkpt lat="48.07664" lon="6.73224">
        <ele>590.09375</ele>
      </trkpt>
      <trkpt lat="48.07695" lon="6.73269">
        <ele>589.9921875</ele>
      </trkpt>
      <trkpt lat="48.07738" lon="6.73297">
        <ele>596.82421875</ele>
      </trkpt>
      <trkpt lat="48.0777" lon="6.73343">
        <ele>601.58203125</ele>
      </trkpt>
      <trkpt lat="48.07817" lon="6.73372">
        <ele>610.546875</ele>
      </trkpt>
      <trkpt lat="48.0786" lon="6.734">
        <ele>616.76171875</ele>
      </trkpt>
      <trkpt lat="48.07903" lon="6.73422">
        <ele>622.08984375</ele>
      </trkpt>
      <trkpt lat="48.07948" lon="6.73424">
        <ele>627.3828125</ele>
      </trkpt>
      <trkpt lat="48.07946" lon="6.73358">
        <ele>636.7734375</ele>
      </trkpt>
      <trkpt lat="48.07943" lon="6.73292">
        <ele>643.65234375</ele>
      </trkpt>
      <trkpt lat="48.07949" lon="6.73227">
        <ele>649.83203125</ele>
      </trkpt>
      <trkpt lat="48.07976" lon="6.73174">
        <ele>653.51953125</ele>
      </trkpt>
      <trkpt lat="48.08" lon="6.73113">
        <ele>658.01953125</ele>
      </trkpt>
      <trkpt lat="48.08006" lon="6.73049">
        <ele>663.3671875</ele>
      </trkpt>
      <trkpt lat="48.08013" lon="6.72978">
        <ele>669.05078125</ele>
      </trkpt>
      <trkpt lat="48.08019" lon="6.72914">
        <ele>674.6484375</ele>
      </trkpt>
      <trkpt lat="48.08034" lon="6.72851">
        <ele>679.88671875</ele>
      </trkpt>
      <trkpt lat="48.08073" lon="6.72819">
        <ele>681.78125</ele>
      </trkpt>
      <trkpt lat="48.08071" lon="6.72753">
        <ele>690.49609375</ele>
      </trkpt>
      <trkpt lat="48.08034" lon="6.72707">
        <ele>697.27734375</ele>
      </trkpt>
      <trkpt lat="48.08003" lon="6.72655">
        <ele>703.87890625</ele>
      </trkpt>
      <trkpt lat="48.07977" lon="6.72597">
        <ele>711.08203125</ele>
      </trkpt>
      <trkpt lat="48.0794" lon="6.72557">
        <ele>715.375</ele>
      </trkpt>
      <trkpt lat="48.07913" lon="6.72499">
        <ele>720.74609375</ele>
      </trkpt>
      <trkpt lat="48.07892" lon="6.72436">
        <ele>726.49609375</ele>
      </trkpt>
      <trkpt lat="48.07889" lon="6.7237">
        <ele>730.640625</ele>
      </trkpt>
      <trkpt lat="48.07892" lon="6.72292">
        <ele>735.04296875</ele>
      </trkpt>
      <trkpt lat="48.07889" lon="6.72226">
        <ele>735.84375</ele>
      </trkpt>
      <trkpt lat="48.07905" lon="6.72157">
        <ele>732.30078125</ele>
      </trkpt>
      <trkpt lat="48.07933" lon="6.72103">
        <ele>726.6953125</ele>
      </trkpt>
      <trkpt lat="48.07952" lon="6.72041">
        <ele>719.4921875</ele>
      </trkpt>
      <trkpt lat="48.07949" lon="6.71975">
        <ele>715.86328125</ele>
      </trkpt>
      <trkpt lat="48.07927" lon="6.71918">
        <ele>714.97265625</ele>
      </trkpt>
      <trkpt lat="48.07934" lon="6.71848">
        <ele>716.69921875</ele>
      </trkpt>
      <trkpt lat="48.07966" lon="6.71801">
        <ele>718.51953125</ele>
      </trkpt>
      <trkpt lat="48.07985" lon="6.7174">
        <ele>721.7421875</ele>
      </trkpt>
      <trkpt lat="48.08014" lon="6.71673">
        <ele>722.109375</ele>
      </trkpt>
      <trkpt lat="48.0805" lon="6.71628">
        <ele>720.72265625</ele>
      </trkpt>
      <trkpt lat="48.08078" lon="6.71574">
        <ele>719.03125</ele>
      </trkpt>
      <trkpt lat="48.08105" lon="6.71521">
        <ele>717.83984375</ele>
      </trkpt>
      <trkpt lat="48.08142" lon="6.71469">
        <ele>715.69140625</ele>
      </trkpt>
      <trkpt lat="48.08166" lon="6.71408">
        <ele>716.2734375</ele>
      </trkpt>
      <trkpt lat="48.08198" lon="6.71362">
        <ele>714.72265625</ele>
      </trkpt>
      <trkpt lat="48.08226" lon="6.71302">
        <ele>715.21875</ele>
      </trkpt>
      <trkpt lat="48.08254" lon="6.71248">
        <ele>715.6640625</ele>
      </trkpt>
      <trkpt lat="48.08222" lon="6.71203">
        <ele>721.63671875</ele>
      </trkpt>
      <trkpt lat="48.082" lon="6.7114">
        <ele>723.921875</ele>
      </trkpt>
      <trkpt lat="48.08193" lon="6.71073">
        <ele>724.04296875</ele>
      </trkpt>
      <trkpt lat="48.08148" lon="6.7107">
        <ele>725.984375</ele>
      </trkpt>
      <trkpt lat="48.08104" lon="6.71101">
        <ele>729.3828125</ele>
      </trkpt>
      <trkpt lat="48.08061" lon="6.71125">
        <ele>732.89453125</ele>
      </trkpt>
      <trkpt lat="48.08014" lon="6.71142">
        <ele>736.625</ele>
      </trkpt>
      <trkpt lat="48.08022" lon="6.71155">
        <ele>741</ele>
        <time>2018-02-23T11:16:24Z</time>
      </trkpt>
      <trkpt lat="48.07985" lon="6.71125">
        <ele>741</ele>
        <time>2018-02-23T11:16:19Z</time>
      </trkpt>
      <trkpt lat="48.07933" lon="6.71078">
        <ele>744</ele>
        <time>2018-02-23T11:16:14Z</time>
      </trkpt>
      <trkpt lat="48.07893" lon="6.71018">
        <ele>737</ele>
        <time>2018-02-23T11:16:09Z</time>
      </trkpt>
      <trkpt lat="48.07879" lon="6.70975">
        <ele>733</ele>
        <time>2018-02-23T11:16:04Z</time>
      </trkpt>
      <trkpt lat="48.07876" lon="6.70932">
        <ele>731</ele>
        <time>2018-02-23T11:15:59Z</time>
      </trkpt>
      <trkpt lat="48.07873" lon="6.70894">
        <ele>733</ele>
        <time>2018-02-23T11:15:54Z</time>
      </trkpt>
      <trkpt lat="48.07913" lon="6.70825">
        <ele>738</ele>
        <time>2018-02-23T11:15:49Z</time>
      </trkpt>
      <trkpt lat="48.07956" lon="6.70748">
        <ele>751</ele>
        <time>2018-02-23T11:15:44Z</time>
      </trkpt>
      <trkpt lat="48.07988" lon="6.70692">
        <ele>756</ele>
        <time>2018-02-23T11:15:39Z</time>
      </trkpt>
      <trkpt lat="48.08016" lon="6.70645">
        <ele>757</ele>
        <time>2018-02-23T11:15:34Z</time>
      </trkpt>
      <trkpt lat="48.08042" lon="6.70495">
        <ele>757</ele>
        <time>2018-02-23T11:15:29Z</time>
      </trkpt>
      <trkpt lat="48.08071" lon="6.70417">
        <ele>750</ele>
        <time>2018-02-23T11:15:24Z</time>
      </trkpt>
      <trkpt lat="48.08105" lon="6.70404">
        <ele>745</ele>
        <time>2018-02-23T11:15:19Z</time>
      </trkpt>
      <trkpt lat="48.08079" lon="6.70323">
        <ele>748</ele>
        <time>2018-02-23T11:15:14Z</time>
      </trkpt>
      <trkpt lat="48.08082" lon="6.70254">
        <ele>747</ele>
        <time>2018-02-23T11:15:09Z</time>
      </trkpt>
      <trkpt lat="48.08108" lon="6.70211">
        <ele>750</ele>
        <time>2018-02-23T11:15:04Z</time>
      </trkpt>
      <trkpt lat="48.0824" lon="6.6998">
        <ele>781</ele>
        <time>2018-02-23T11:14:59Z</time>
      </trkpt>
      <trkpt lat="48.08277" lon="6.69761">
        <ele>789</ele>
        <time>2018-02-23T11:14:54Z</time>
      </trkpt>
      <trkpt lat="48.08251" lon="6.69696">
        <ele>793</ele>
        <time>2018-02-23T11:14:49Z</time>
      </trkpt>
      <trkpt lat="48.08094" lon="6.69555">
        <ele>809</ele>
        <time>2018-02-23T11:14:44Z</time>
      </trkpt>
      <trkpt lat="48.08082" lon="6.69512">
        <ele>808</ele>
        <time>2018-02-23T11:14:39Z</time>
      </trkpt>
      <trkpt lat="48.07965" lon="6.69357">
        <ele>803</ele>
        <time>2018-02-23T11:14:34Z</time>
      </trkpt>
      <trkpt lat="48.07867" lon="6.6919">
        <ele>794</ele>
        <time>2018-02-23T11:14:29Z</time>
      </trkpt>
      <trkpt lat="48.07876" lon="6.69018">
        <ele>792</ele>
        <time>2018-02-23T11:14:24Z</time>
      </trkpt>
      <trkpt lat="48.07844" lon="6.68739">
        <ele>793</ele>
        <time>2018-02-23T11:14:19Z</time>
      </trkpt>
      <trkpt lat="48.07813" lon="6.68546">
        <ele>789</ele>
        <time>2018-02-23T11:14:14Z</time>
      </trkpt>
      <trkpt lat="48.07741" lon="6.68366">
        <ele>781</ele>
        <time>2018-02-23T11:14:09Z</time>
      </trkpt>
      <trkpt lat="48.07649" lon="6.68284">
        <ele>784</ele>
        <time>2018-02-23T11:14:04Z</time>
      </trkpt>
      <trkpt lat="48.07563" lon="6.68194">
        <ele>782</ele>
        <time>2018-02-23T11:13:59Z</time>
      </trkpt>
      <trkpt lat="48.07518" lon="6.6816">
        <ele>785</ele>
        <time>2018-02-23T11:13:54Z</time>
      </trkpt>
      <trkpt lat="48.07472" lon="6.68096">
        <ele>790</ele>
        <time>2018-02-23T11:13:49Z</time>
      </trkpt>
      <trkpt lat="48.07466" lon="6.68053">
        <ele>793</ele>
        <time>2018-02-23T11:13:44Z</time>
      </trkpt>
      <trkpt lat="48.07489" lon="6.68014">
        <ele>794</ele>
        <time>2018-02-23T11:13:39Z</time>
      </trkpt>
      <trkpt lat="48.07566" lon="6.67842">
        <ele>801</ele>
        <time>2018-02-23T11:13:34Z</time>
      </trkpt>
      <trkpt lat="48.07612" lon="6.67799">
        <ele>799</ele>
        <time>2018-02-23T11:13:29Z</time>
      </trkpt>
      <trkpt lat="48.0771" lon="6.67688">
        <ele>788</ele>
        <time>2018-02-23T11:13:24Z</time>
      </trkpt>
      <trkpt lat="48.07761" lon="6.67602">
        <ele>782</ele>
        <time>2018-02-23T11:13:19Z</time>
      </trkpt>
      <trkpt lat="48.07764" lon="6.67533">
        <ele>783</ele>
        <time>2018-02-23T11:13:14Z</time>
      </trkpt>
      <trkpt lat="48.07689" lon="6.67186">
        <ele>776</ele>
        <time>2018-02-23T11:13:09Z</time>
      </trkpt>
      <trkpt lat="48.07692" lon="6.67121">
        <ele>775</ele>
        <time>2018-02-23T11:13:04Z</time>
      </trkpt>
      <trkpt lat="48.0771" lon="6.671">
        <ele>773</ele>
        <time>2018-02-23T11:12:59Z</time>
      </trkpt>
      <trkpt lat="48.07609" lon="6.67126">
        <ele>779</ele>
        <time>2018-02-23T11:12:54Z</time>
      </trkpt>
      <trkpt lat="48.07583" lon="6.67108">
        <ele>779</ele>
        <time>2018-02-23T11:12:49Z</time>
      </trkpt>
      <trkpt lat="48.0752" lon="6.6704">
        <ele>772</ele>
        <time>2018-02-23T11:12:44Z</time>
      </trkpt>
      <trkpt lat="48.075" lon="6.67018">
        <ele>769</ele>
        <time>2018-02-23T11:12:39Z</time>
      </trkpt>
      <trkpt lat="48.07406" lon="6.67001">
        <ele>760</ele>
        <time>2018-02-23T11:12:34Z</time>
      </trkpt>
      <trkpt lat="48.07357" lon="6.66975">
        <ele>754</ele>
        <time>2018-02-23T11:12:29Z</time>
      </trkpt>
      <trkpt lat="48.07274" lon="6.66963">
        <ele>748</ele>
        <time>2018-02-23T11:12:24Z</time>
      </trkpt>
      <trkpt lat="48.07311" lon="6.66855">
        <ele>725</ele>
        <time>2018-02-23T11:12:19Z</time>
      </trkpt>
      <trkpt lat="48.07231" lon="6.66872">
        <ele>719</ele>
        <time>2018-02-23T11:12:14Z</time>
      </trkpt>
      <trkpt lat="48.07145" lon="6.66877">
        <ele>713</ele>
        <time>2018-02-23T11:12:09Z</time>
      </trkpt>
      <trkpt lat="48.07096" lon="6.66868">
        <ele>710</ele>
        <time>2018-02-23T11:12:04Z</time>
      </trkpt>
      <trkpt lat="48.07039" lon="6.66881">
        <ele>712</ele>
        <time>2018-02-23T11:11:59Z</time>
      </trkpt>
      <trkpt lat="48.06978" lon="6.66928">
        <ele>713</ele>
        <time>2018-02-23T11:11:54Z</time>
      </trkpt>
      <trkpt lat="48.06947" lon="6.66963">
        <ele>714</ele>
        <time>2018-02-23T11:11:49Z</time>
      </trkpt>
      <trkpt lat="48.06941" lon="6.66984">
        <ele>717</ele>
        <time>2018-02-23T11:11:44Z</time>
      </trkpt>
      <trkpt lat="48.06901" lon="6.67074">
        <ele>724</ele>
        <time>2018-02-23T11:11:39Z</time>
      </trkpt>
      <trkpt lat="48.06846" lon="6.6713">
        <ele>721</ele>
        <time>2018-02-23T11:11:34Z</time>
      </trkpt>
      <trkpt lat="48.06838" lon="6.67216">
        <ele>729</ele>
        <time>2018-02-23T11:11:29Z</time>
      </trkpt>
      <trkpt lat="48.06809" lon="6.67272">
        <ele>728</ele>
        <time>2018-02-23T11:11:24Z</time>
      </trkpt>
      <trkpt lat="48.06806" lon="6.67392">
        <ele>736</ele>
        <time>2018-02-23T11:11:19Z</time>
      </trkpt>
      <trkpt lat="48.06772" lon="6.67478">
        <ele>733</ele>
        <time>2018-02-23T11:11:14Z</time>
      </trkpt>
      <trkpt lat="48.06769" lon="6.67493">
        <ele>720.859375</ele>
      </trkpt>
      <trkpt lat="48.06754" lon="6.67529">
        <ele>721.3125</ele>
      </trkpt>
      <trkpt lat="48.06748" lon="6.67571">
        <ele>722.171875</ele>
      </trkpt>
      <trkpt lat="48.06744" lon="6.6761">
        <ele>722.9453125</ele>
      </trkpt>
      <trkpt lat="48.06746" lon="6.6765">
        <ele>724.79296875</ele>
      </trkpt>
      <trkpt lat="48.0675" lon="6.6769">
        <ele>725.09375</ele>
      </trkpt>
      <trkpt lat="48.06748" lon="6.67737">
        <ele>725.71484375</ele>
      </trkpt>
      <trkpt lat="48.06742" lon="6.67775">
        <ele>725.82421875</ele>
      </trkpt>
      <trkpt lat="48.06736" lon="6.67813">
        <ele>726.63671875</ele>
      </trkpt>
      <trkpt lat="48.06729" lon="6.67851">
        <ele>726.2734375</ele>
      </trkpt>
      <trkpt lat="48.06729" lon="6.6786">
        <ele>738</ele>
        <time>2018-02-23T11:23:49Z</time>
      </trkpt>
      <trkpt lat="48.0676" lon="6.67855">
        <ele>743</ele>
        <time>2018-02-23T11:23:44Z</time>
      </trkpt>
      <trkpt lat="48.06789" lon="6.67902">
        <ele>749</ele>
        <time>2018-02-23T11:23:39Z</time>
      </trkpt>
      <trkpt lat="48.06809" lon="6.6798">
        <ele>751</ele>
        <time>2018-02-23T11:23:34Z</time>
      </trkpt>
      <trkpt lat="48.06855" lon="6.67997">
        <ele>765</ele>
        <time>2018-02-23T11:23:29Z</time>
      </trkpt>
      <trkpt lat="48.06818" lon="6.68503">
        <ele>762</ele>
        <time>2018-02-23T11:23:24Z</time>
      </trkpt>
      <trkpt lat="48.06849" lon="6.68563">
        <ele>766</ele>
        <time>2018-02-23T11:23:19Z</time>
      </trkpt>
      <trkpt lat="48.06875" lon="6.68623">
        <ele>772</ele>
        <time>2018-02-23T11:23:14Z</time>
      </trkpt>
      <trkpt lat="48.06898" lon="6.68688">
        <ele>778</ele>
        <time>2018-02-23T11:23:09Z</time>
      </trkpt>
      <trkpt lat="48.06881" lon="6.69027">
        <ele>775</ele>
        <time>2018-02-23T11:23:04Z</time>
      </trkpt>
      <trkpt lat="48.06938" lon="6.69143">
        <ele>781</ele>
        <time>2018-02-23T11:22:59Z</time>
      </trkpt>
      <trkpt lat="48.06993" lon="6.69276">
        <ele>783</ele>
        <time>2018-02-23T11:22:54Z</time>
      </trkpt>
      <trkpt lat="48.06993" lon="6.69336">
        <ele>779</ele>
        <time>2018-02-23T11:22:49Z</time>
      </trkpt>
      <trkpt lat="48.06967" lon="6.69439">
        <ele>776</ele>
        <time>2018-02-23T11:22:44Z</time>
      </trkpt>
      <trkpt lat="48.0693" lon="6.69559">
        <ele>776</ele>
        <time>2018-02-23T11:22:39Z</time>
      </trkpt>
      <trkpt lat="48.06881" lon="6.69679">
        <ele>769</ele>
        <time>2018-02-23T11:22:34Z</time>
      </trkpt>
      <trkpt lat="48.06884" lon="6.69705">
        <ele>770</ele>
        <time>2018-02-23T11:22:29Z</time>
      </trkpt>
      <trkpt lat="48.06901" lon="6.69773">
        <ele>774</ele>
        <time>2018-02-23T11:22:24Z</time>
      </trkpt>
      <trkpt lat="48.06921" lon="6.69876">
        <ele>773</ele>
        <time>2018-02-23T11:22:19Z</time>
      </trkpt>
      <trkpt lat="48.06955" lon="6.69962">
        <ele>776</ele>
        <time>2018-02-23T11:22:14Z</time>
      </trkpt>
      <trkpt lat="48.07013" lon="6.70044">
        <ele>781</ele>
        <time>2018-02-23T11:22:09Z</time>
      </trkpt>
      <trkpt lat="48.0703" lon="6.70125">
        <ele>782</ele>
        <time>2018-02-23T11:22:04Z</time>
      </trkpt>
      <trkpt lat="48.06993" lon="6.7022">
        <ele>772</ele>
        <time>2018-02-23T11:21:59Z</time>
      </trkpt>
      <trkpt lat="48.0691" lon="6.7037">
        <ele>748</ele>
        <time>2018-02-23T11:21:54Z</time>
      </trkpt>
      <trkpt lat="48.06901" lon="6.704">
        <ele>745</ele>
        <time>2018-02-23T11:21:49Z</time>
      </trkpt>
      <trkpt lat="48.06921" lon="6.70555">
        <ele>733</ele>
        <time>2018-02-23T11:21:44Z</time>
      </trkpt>
      <trkpt lat="48.0697" lon="6.70662">
        <ele>728</ele>
        <time>2018-02-23T11:21:39Z</time>
      </trkpt>
      <trkpt lat="48.07036" lon="6.70722">
        <ele>727</ele>
        <time>2018-02-23T11:21:34Z</time>
      </trkpt>
      <trkpt lat="48.07119" lon="6.70713">
        <ele>733</ele>
        <time>2018-02-23T11:21:29Z</time>
      </trkpt>
      <trkpt lat="48.07185" lon="6.70726">
        <ele>730</ele>
        <time>2018-02-23T11:21:24Z</time>
      </trkpt>
      <trkpt lat="48.07234" lon="6.70859">
        <ele>708</ele>
        <time>2018-02-23T11:21:19Z</time>
      </trkpt>
      <trkpt lat="48.07277" lon="6.70919">
        <ele>708</ele>
        <time>2018-02-23T11:21:14Z</time>
      </trkpt>
      <trkpt lat="48.07363" lon="6.71009">
        <ele>706</ele>
        <time>2018-02-23T11:21:09Z</time>
      </trkpt>
      <trkpt lat="48.0738" lon="6.7104">
        <ele>704</ele>
        <time>2018-02-23T11:21:04Z</time>
      </trkpt>
      <trkpt lat="48.07423" lon="6.71151">
        <ele>692</ele>
        <time>2018-02-23T11:20:59Z</time>
      </trkpt>
      <trkpt lat="48.07434" lon="6.7119">
        <ele>693</ele>
        <time>2018-02-23T11:20:54Z</time>
      </trkpt>
      <trkpt lat="48.07434" lon="6.71327">
        <ele>690</ele>
        <time>2018-02-23T11:20:49Z</time>
      </trkpt>
      <trkpt lat="48.07394" lon="6.71396">
        <ele>683</ele>
        <time>2018-02-23T11:20:44Z</time>
      </trkpt>
      <trkpt lat="48.07308" lon="6.71451">
        <ele>667</ele>
        <time>2018-02-23T11:20:39Z</time>
      </trkpt>
      <trkpt lat="48.07067" lon="6.71696">
        <ele>646</ele>
        <time>2018-02-23T11:20:34Z</time>
      </trkpt>
      <trkpt lat="48.07047" lon="6.71717">
        <ele>641</ele>
        <time>2018-02-23T11:20:29Z</time>
      </trkpt>
      <trkpt lat="48.07052" lon="6.71732">
        <ele>629.015625</ele>
      </trkpt>
      <trkpt lat="48.07088" lon="6.71779">
        <ele>628.13671875</ele>
      </trkpt>
      <trkpt lat="48.07135" lon="6.71768">
        <ele>635.390625</ele>
      </trkpt>
      <trkpt lat="48.07177" lon="6.71803">
        <ele>632.7421875</ele>
      </trkpt>
      <trkpt lat="48.07175" lon="6.71868">
        <ele>617.05078125</ele>
      </trkpt>
      <trkpt lat="48.07197" lon="6.71925">
        <ele>611.328125</ele>
      </trkpt>
      <trkpt lat="48.07228" lon="6.71977">
        <ele>611.3125</ele>
      </trkpt>
      <trkpt lat="48.07264" lon="6.7203">
        <ele>613.33203125</ele>
      </trkpt>
      <trkpt lat="48.07295" lon="6.72088">
        <ele>612.36328125</ele>
      </trkpt>
      <trkpt lat="48.07296" lon="6.72167">
        <ele>605.4453125</ele>
      </trkpt>
      <trkpt lat="48.07289" lon="6.72245">
        <ele>598.08984375</ele>
      </trkpt>
      <trkpt lat="48.07273" lon="6.7232">
        <ele>593.2890625</ele>
      </trkpt>
      <trkpt lat="48.07245" lon="6.72374">
        <ele>589.24609375</ele>
      </trkpt>
      <trkpt lat="48.07235" lon="6.72437">
        <ele>592.60546875</ele>
      </trkpt>
      <trkpt lat="48.07211" lon="6.72498">
        <ele>592.71875</ele>
      </trkpt>
      <trkpt lat="48.07187" lon="6.72559">
        <ele>591.890625</ele>
      </trkpt>
      <trkpt lat="48.0718" lon="6.7263">
        <ele>594.68359375</ele>
      </trkpt>
      <trkpt lat="48.07165" lon="6.72699">
        <ele>594.453125</ele>
      </trkpt>
      <trkpt lat="48.07158" lon="6.7277">
        <ele>594.1171875</ele>
      </trkpt>
      <trkpt lat="48.07156" lon="6.72835">
        <ele>594.4765625</ele>
      </trkpt>
      <trkpt lat="48.07155" lon="6.729">
        <ele>592.90234375</ele>
      </trkpt>
      <trkpt lat="48.07162" lon="6.72967">
        <ele>591.53515625</ele>
      </trkpt>
      <trkpt lat="48.07193" lon="6.73019">
        <ele>593.828125</ele>
      </trkpt>
      <trkpt lat="48.0723" lon="6.73059">
        <ele>597.27734375</ele>
      </trkpt>
      <trkpt lat="48.07262" lon="6.73111">
        <ele>595.02734375</ele>
      </trkpt>
      <trkpt lat="48.07299" lon="6.73151">
        <ele>592.34375</ele>
      </trkpt>
      <trkpt lat="48.07335" lon="6.73198">
        <ele>585.2890625</ele>
      </trkpt>
      <trkpt lat="48.07377" lon="6.73233">
        <ele>581.24609375</ele>
      </trkpt>
      <trkpt lat="48.0742" lon="6.73261">
        <ele>577.625</ele>
      </trkpt>
      <trkpt lat="48.07464" lon="6.73276">
        <ele>578.38671875</ele>
      </trkpt>
      <trkpt lat="48.07511" lon="6.73259">
        <ele>586.0390625</ele>
      </trkpt>
    </trkseg>
  </trk>
</gpx>